^^
Saratoga-Weather Station Historical Data
Daily Summary for May 08, 2021 Units:  Both    English   Metric
Daily Weekly Monthly Yearly Custom
  High: Low: Average:
Temperature: 68.2 °F /  20.1 °C 36.1 °F /  2.3 °C 52.2 °F /  11.2 °C
Dew Point: 55.2 °F /  12.9 °C 33.1 °F /  0.6 °C 43.3 °F /  6.3 °C
Humidity: 93% 56% 74%
Wind Speed: 16mph /  25.7km/h - 1.2mph /  2km/h
Wind Gust: 16mph /  25.7km/h - -
Wind- - ESE
Pressure: 30.1 in /  1019.0 hPa 29.8 in /  1009.5 hPa -
Precipitation: 0 in /  0.0 mm    
Historical Graphs
 
 
Tabular Data for May 08, 2021
Time Temperature Dew Point Pressure Wind Wind Speed Wind Gust Humidity Rainfall Rate (Hourly) solar
00:02 41.7 °F /  5.4 °C 35.8 °F /  2.1 °C 30.1in /  1018.6hPa West 0.9mph /  1.4km/h 1mph /  1.6km/h 79% 0in /  0.0mm 0 W/m2
00:07 41.5 °F /  5.3 °C 35.8 °F /  2.1 °C 30.1in /  1018.6hPa Calm     80% 0in /  0.0mm 0 W/m2
00:12 41.4 °F /  5.2 °C 36 °F /  2.2 °C 30.1in /  1018.6hPa Calm     81% 0in /  0.0mm 0 W/m2
00:17 41.2 °F /  5.1 °C 35.4 °F /  1.9 °C 30.1in /  1018.6hPa Calm     80% 0in /  0.0mm 0 W/m2
00:22 40.8 °F /  4.9 °C 35.1 °F /  1.7 °C 30.1in /  1018.6hPa Calm     80% 0in /  0.0mm 0 W/m2
00:27 40.6 °F /  4.8 °C 34.9 °F /  1.6 °C 30.1in /  1019.0hPa Calm     80% 0in /  0.0mm 0 W/m2
00:32 40.6 °F /  4.8 °C 35.2 °F /  1.8 °C 30.1in /  1019.0hPa Calm     81% 0in /  0.0mm 0 W/m2
00:37 40.5 °F /  4.7 °C 35.1 °F /  1.7 °C 30.1in /  1018.6hPa Calm     81% 0in /  0.0mm 0 W/m2
00:42 40.3 °F /  4.6 °C 34.9 °F /  1.6 °C 30.1in /  1018.6hPa Calm     81% 0in /  0.0mm 0 W/m2
00:47 40.1 °F /  4.5 °C 34.7 °F /  1.5 °C 30.1in /  1018.6hPa Calm     81% 0in /  0.0mm 0 W/m2
00:52 39.9 °F /  4.4 °C 34.5 °F /  1.4 °C 30.1in /  1018.6hPa Calm     81% 0in /  0.0mm 0 W/m2
00:57 39.7 °F /  4.3 °C 34.2 °F /  1.2 °C 30.1in /  1018.6hPa Calm     80% 0in /  0.0mm 0 W/m2
01:02 39.7 °F /  4.3 °C 34.2 °F /  1.2 °C 30.1in /  1018.6hPa Calm     80% 0in /  0.0mm 0 W/m2
01:08 39.6 °F /  4.2 °C 34.2 °F /  1.2 °C 30.1in /  1018.6hPa Calm     81% 0in /  0.0mm 0 W/m2
01:13 39.4 °F /  4.1 °C 34.3 °F /  1.3 °C 30.1in /  1018.6hPa Calm   1mph /  1.6km/h 82% 0in /  0.0mm 0 W/m2
01:18 39.4 °F /  4.1 °C 34.7 °F /  1.5 °C 30.1in /  1018.6hPa Calm     83% 0in /  0.0mm 0 W/m2
01:23 39.4 °F /  4.1 °C 34.7 °F /  1.5 °C 30.1in /  1018.6hPa Calm     83% 0in /  0.0mm 0 W/m2
01:28 39.2 °F /  4 °C 34.5 °F /  1.4 °C 30.1in /  1018.6hPa Calm     83% 0in /  0.0mm 0 W/m2
01:33 39.2 °F /  4 °C 34.7 °F /  1.5 °C 30.1in /  1018.6hPa Calm     84% 0in /  0.0mm 0 W/m2
01:38 39 °F /  3.9 °C 34.5 °F /  1.4 °C 30.1in /  1018.3hPa Calm     84% 0in /  0.0mm 0 W/m2
01:43 39 °F /  3.9 °C 34.5 °F /  1.4 °C 30.1in /  1018.3hPa Calm     84% 0in /  0.0mm 0 W/m2
01:48 38.8 °F /  3.8 °C 34.3 °F /  1.3 °C 30.1in /  1018.3hPa Calm     84% 0in /  0.0mm 0 W/m2
01:53 38.7 °F /  3.7 °C 34.2 °F /  1.2 °C 30.1in /  1018.3hPa Calm     84% 0in /  0.0mm 0 W/m2
01:58 38.7 °F /  3.7 °C 34.2 °F /  1.2 °C 30.1in /  1018.3hPa Calm     84% 0in /  0.0mm 0 W/m2
02:03 38.5 °F /  3.6 °C 34.3 °F /  1.3 °C 30.1in /  1018.3hPa Calm     85% 0in /  0.0mm 0 W/m2
02:08 38.5 °F /  3.6 °C 34.3 °F /  1.3 °C 30.1in /  1018.3hPa Calm     85% 0in /  0.0mm 0 W/m2
02:13 38.3 °F /  3.5 °C 34.2 °F /  1.2 °C 30.1in /  1018.3hPa Calm     85% 0in /  0.0mm 0 W/m2
02:18 38.5 °F /  3.6 °C 34.3 °F /  1.3 °C 30.1in /  1018.3hPa Calm     85% 0in /  0.0mm 0 W/m2
02:23 38.7 °F /  3.7 °C 34.5 °F /  1.4 °C 30.1in /  1018.3hPa Calm     85% 0in /  0.0mm 0 W/m2
02:28 38.7 °F /  3.7 °C 34.5 °F /  1.4 °C 30.1in /  1018.3hPa Calm     85% 0in /  0.0mm 0 W/m2
02:33 38.7 °F /  3.7 °C 34.5 °F /  1.4 °C 30.1in /  1018.3hPa Calm     85% 0in /  0.0mm 0 W/m2
02:38 38.7 °F /  3.7 °C 34.5 °F /  1.4 °C 30.1in /  1018.3hPa Calm     85% 0in /  0.0mm 0 W/m2
02:43 38.7 °F /  3.7 °C 34.9 °F /  1.6 °C 30.1in /  1018.3hPa Calm     86% 0in /  0.0mm 0 W/m2
02:48 38.7 °F /  3.7 °C 34.9 °F /  1.6 °C 30.1in /  1018.0hPa Calm     86% 0in /  0.0mm 0 W/m2
02:53 38.7 °F /  3.7 °C 34.9 °F /  1.6 °C 30.1in /  1018.0hPa Calm     86% 0in /  0.0mm 0 W/m2
02:58 38.7 °F /  3.7 °C 34.9 °F /  1.6 °C 30.1in /  1018.0hPa Calm     86% 0in /  0.0mm 0 W/m2
03:03 38.7 °F /  3.7 °C 35.1 °F /  1.7 °C 30.1in /  1018.0hPa Calm     87% 0in /  0.0mm 0 W/m2
03:08 38.7 °F /  3.7 °C 35.1 °F /  1.7 °C 30.1in /  1018.0hPa Calm     87% 0in /  0.0mm 0 W/m2
03:13 38.7 °F /  3.7 °C 35.1 °F /  1.7 °C 30.1in /  1018.0hPa Calm     87% 0in /  0.0mm 0 W/m2
03:18 38.7 °F /  3.7 °C 35.1 °F /  1.7 °C 30.1in /  1018.0hPa Calm     87% 0in /  0.0mm 0 W/m2
03:23 38.5 °F /  3.6 °C 34.9 °F /  1.6 °C 30.1in /  1018.0hPa Calm     87% 0in /  0.0mm 0 W/m2
03:28 38.5 °F /  3.6 °C 34.9 °F /  1.6 °C 30.1in /  1018.0hPa Calm     87% 0in /  0.0mm 0 W/m2
03:33 38.1 °F /  3.4 °C 34.5 °F /  1.4 °C 30.1in /  1018.0hPa Calm     87% 0in /  0.0mm 0 W/m2
03:38 37.9 °F /  3.3 °C 34.3 °F /  1.3 °C 30.1in /  1018.0hPa Calm     87% 0in /  0.0mm 0 W/m2
03:43 37.8 °F /  3.2 °C 34.2 °F /  1.2 °C 30.1in /  1018.0hPa Calm     87% 0in /  0.0mm 0 W/m2
03:48 37.6 °F /  3.1 °C 34 °F /  1.1 °C 30.1in /  1018.0hPa Calm     87% 0in /  0.0mm 0 W/m2
03:53 37.4 °F /  3 °C 34.2 °F /  1.2 °C 30.1in /  1018.0hPa Calm     88% 0in /  0.0mm 0 W/m2
03:58 37.2 °F /  2.9 °C 34 °F /  1.1 °C 30.1in /  1018.0hPa Calm     88% 0in /  0.0mm 0 W/m2
04:03 37 °F /  2.8 °C 33.8 °F /  1 °C 30.1in /  1018.0hPa Calm     88% 0in /  0.0mm 0 W/m2
04:08 36.9 °F /  2.7 °C 33.6 °F /  0.9 °C 30.1in /  1018.0hPa Calm     88% 0in /  0.0mm 0 W/m2
04:13 36.7 °F /  2.6 °C 33.4 °F /  0.8 °C 30.1in /  1017.6hPa Calm     88% 0in /  0.0mm 0 W/m2
04:18 36.5 °F /  2.5 °C 33.3 °F /  0.7 °C 30.1in /  1017.6hPa Calm     88% 0in /  0.0mm 0 W/m2
04:23 36.3 °F /  2.4 °C 33.1 °F /  0.6 °C 30.1in /  1017.6hPa Calm     88% 0in /  0.0mm 0 W/m2
04:28 36.3 °F /  2.4 °C 33.4 °F /  0.8 °C 30.1in /  1017.6hPa Calm     89% 0in /  0.0mm 0 W/m2
04:33 36.3 °F /  2.4 °C 33.6 °F /  0.9 °C 30.1in /  1017.6hPa Calm     90% 0in /  0.0mm 0 W/m2
04:38 36.3 °F /  2.4 °C 33.6 °F /  0.9 °C 30.1in /  1017.6hPa Calm     90% 0in /  0.0mm 0 W/m2
04:43 36.3 °F /  2.4 °C 33.6 °F /  0.9 °C 30.1in /  1017.6hPa Calm     90% 0in /  0.0mm 0 W/m2
04:48 36.1 °F /  2.3 °C 33.4 °F /  0.8 °C 30.1in /  1017.6hPa Calm     90% 0in /  0.0mm 0 W/m2
04:53 36.1 °F /  2.3 °C 33.4 °F /  0.8 °C 30in /  1017.3hPa Calm     90% 0in /  0.0mm 0 W/m2
04:58 36.1 °F /  2.3 °C 33.8 °F /  1 °C 30in /  1017.3hPa Calm     91% 0in /  0.0mm 0 W/m2
05:03 36.3 °F /  2.4 °C 34 °F /  1.1 °C 30in /  1017.3hPa Calm     91% 0in /  0.0mm 0 W/m2
05:08 36.5 °F /  2.5 °C 34.2 °F /  1.2 °C 30in /  1017.3hPa Calm     91% 0in /  0.0mm 0 W/m2
05:13 36.7 °F /  2.6 °C 34.5 °F /  1.4 °C 30in /  1017.3hPa Calm     92% 0in /  0.0mm 0 W/m2
05:18 36.7 °F /  2.6 °C 34.5 °F /  1.4 °C 30in /  1017.3hPa Calm     92% 0in /  0.0mm 0 W/m2
05:23 36.9 °F /  2.7 °C 34.7 °F /  1.5 °C 30in /  1017.3hPa Calm     92% 0in /  0.0mm 0 W/m2
05:28 37 °F /  2.8 °C 34.9 °F /  1.6 °C 30in /  1017.3hPa Calm     92% 0in /  0.0mm 0 W/m2
05:33 37 °F /  2.8 °C 34.9 °F /  1.6 °C 30in /  1017.3hPa Calm     92% 0in /  0.0mm 0 W/m2
05:39 37.2 °F /  2.9 °C 35.1 °F /  1.7 °C 30in /  1017.3hPa Calm     92% 0in /  0.0mm 0 W/m2
05:44 37.4 °F /  3 °C 35.2 °F /  1.8 °C 30in /  1016.9hPa Calm     92% 0in /  0.0mm 0 W/m2
05:49 37.6 °F /  3.1 °C 35.4 °F /  1.9 °C 30in /  1017.3hPa Calm     92% 0in /  0.0mm 0 W/m2
05:54 37.6 °F /  3.1 °C 35.4 °F /  1.9 °C 30in /  1017.3hPa Calm     92% 0in /  0.0mm 0 W/m2
05:59 37.6 °F /  3.1 °C 35.4 °F /  1.9 °C 30in /  1017.3hPa Calm     92% 0in /  0.0mm 5 W/m2
06:04 37.8 °F /  3.2 °C 35.6 °F /  2 °C 30in /  1017.3hPa Calm     92% 0in /  0.0mm 5 W/m2
06:09 37.8 °F /  3.2 °C 35.6 °F /  2 °C 30in /  1017.3hPa Calm     92% 0in /  0.0mm 7 W/m2
06:14 37.9 °F /  3.3 °C 35.8 °F /  2.1 °C 30in /  1017.3hPa Calm     92% 0in /  0.0mm 11 W/m2
06:19 37.9 °F /  3.3 °C 35.8 °F /  2.1 °C 30in /  1016.9hPa Calm     92% 0in /  0.0mm 14 W/m2
06:24 38.1 °F /  3.4 °C 36 °F /  2.2 °C 30in /  1016.9hPa Calm     92% 0in /  0.0mm 21 W/m2
06:29 38.1 °F /  3.4 °C 36 °F /  2.2 °C 30in /  1016.9hPa Calm     92% 0in /  0.0mm 28 W/m2
06:34 38.3 °F /  3.5 °C 36.1 °F /  2.3 °C 30in /  1016.9hPa Calm     92% 0in /  0.0mm 30 W/m2
06:39 38.5 °F /  3.6 °C 36.3 °F /  2.4 °C 30in /  1016.9hPa Calm     92% 0in /  0.0mm 37 W/m2
06:44 38.7 °F /  3.7 °C 36.9 °F /  2.7 °C 30in /  1016.9hPa Calm     93% 0in /  0.0mm 39 W/m2
06:49 38.8 °F /  3.8 °C 36.7 °F /  2.6 °C 30in /  1016.9hPa Calm     92% 0in /  0.0mm 42 W/m2
06:54 38.8 °F /  3.8 °C 36.7 °F /  2.6 °C 30in /  1016.9hPa West 0.9mph /  1.4km/h 1mph /  1.6km/h 92% 0in /  0.0mm 40 W/m2
06:59 39 °F /  3.9 °C 36.7 °F /  2.6 °C 30in /  1016.9hPa Calm     91% 0in /  0.0mm 46 W/m2
07:04 39.2 °F /  4 °C 36.9 °F /  2.7 °C 30in /  1016.9hPa Calm   1mph /  1.6km/h 91% 0in /  0.0mm 49 W/m2
07:09 39.4 °F /  4.1 °C 37 °F /  2.8 °C 30in /  1016.9hPa Calm     91% 0in /  0.0mm 54 W/m2
07:14 39.4 °F /  4.1 °C 36.7 °F /  2.6 °C 30in /  1016.9hPa WSW 2mph /  3.2km/h 2mph /  3.2km/h 90% 0in /  0.0mm 44 W/m2
07:19 39.6 °F /  4.2 °C 36.9 °F /  2.7 °C 30in /  1016.9hPa ESE 0.9mph /  1.4km/h 2mph /  3.2km/h 90% 0in /  0.0mm 54 W/m2
07:24 39.6 °F /  4.2 °C 36.5 °F /  2.5 °C 30in /  1016.9hPa Calm   2mph /  3.2km/h 89% 0in /  0.0mm 86 W/m2
07:29 39.6 °F /  4.2 °C 36.9 °F /  2.7 °C 30in /  1016.9hPa Calm   1mph /  1.6km/h 90% 0in /  0.0mm 105 W/m2
07:34 39.7 °F /  4.3 °C 37 °F /  2.8 °C 30in /  1016.9hPa Calm   1mph /  1.6km/h 90% 0in /  0.0mm 91 W/m2
07:39 39.9 °F /  4.4 °C 36.9 °F /  2.7 °C 30in /  1016.9hPa Calm   2mph /  3.2km/h 89% 0in /  0.0mm 65 W/m2
07:44 40.1 °F /  4.5 °C 37 °F /  2.8 °C 30in /  1016.9hPa ENE 2mph /  3.2km/h 2mph /  3.2km/h 89% 0in /  0.0mm 83 W/m2
07:49 40.3 °F /  4.6 °C 37.2 °F /  2.9 °C 30in /  1016.9hPa Calm   1mph /  1.6km/h 89% 0in /  0.0mm 118 W/m2
07:54 40.5 °F /  4.7 °C 37.4 °F /  3 °C 30in /  1016.9hPa ENE 0.9mph /  1.4km/h 1mph /  1.6km/h 89% 0in /  0.0mm 125 W/m2
07:59 40.5 °F /  4.7 °C 37.4 °F /  3 °C 30in /  1017.3hPa Calm   1mph /  1.6km/h 89% 0in /  0.0mm 104 W/m2
08:04 40.6 °F /  4.8 °C 37.4 °F /  3 °C 30in /  1017.3hPa Calm   2mph /  3.2km/h 88% 0in /  0.0mm 98 W/m2
08:09 40.8 °F /  4.9 °C 37.8 °F /  3.2 °C 30in /  1017.3hPa Calm   1mph /  1.6km/h 89% 0in /  0.0mm 79 W/m2
08:14 41.4 °F /  5.2 °C 38.1 °F /  3.4 °C 30in /  1017.3hPa ENE 2mph /  3.2km/h 3mph /  4.8km/h 88% 0in /  0.0mm 90 W/m2
08:19 41.7 °F /  5.4 °C 38.5 °F /  3.6 °C 30in /  1016.9hPa ENE 0.9mph /  1.4km/h 2mph /  3.2km/h 88% 0in /  0.0mm 81 W/m2
08:24 42.1 °F /  5.6 °C 38.5 °F /  3.6 °C 30in /  1016.9hPa ENE 2mph /  3.2km/h 2mph /  3.2km/h 87% 0in /  0.0mm 69 W/m2
08:29 42.6 °F /  5.9 °C 39 °F /  3.9 °C 30in /  1016.9hPa ENE 0.9mph /  1.4km/h 2mph /  3.2km/h 87% 0in /  0.0mm 76 W/m2
08:34 43.5 °F /  6.4 °C 39.6 °F /  4.2 °C 30in /  1016.9hPa East 0.9mph /  1.4km/h 4mph /  6.4km/h 86% 0in /  0.0mm 95 W/m2
08:39 44.2 °F /  6.8 °C 39.7 °F /  4.3 °C 30in /  1016.9hPa NE 2mph /  3.2km/h 3mph /  4.8km/h 84% 0in /  0.0mm 127 W/m2
08:44 44.6 °F /  7 °C 39.4 °F /  4.1 °C 30in /  1016.9hPa East 2.9mph /  4.7km/h 4mph /  6.4km/h 82% 0in /  0.0mm 227 W/m2
08:49 45 °F /  7.2 °C 39.2 °F /  4 °C 30in /  1016.9hPa East 0.9mph /  1.4km/h 3mph /  4.8km/h 80% 0in /  0.0mm 311 W/m2
08:54 45.3 °F /  7.4 °C 39.6 °F /  4.2 °C 30in /  1016.9hPa East 2mph /  3.2km/h 2mph /  3.2km/h 80% 0in /  0.0mm 439 W/m2
08:59 45.9 °F /  7.7 °C 39.7 °F /  4.3 °C 30in /  1016.9hPa ESE 2mph /  3.2km/h 6mph /  9.7km/h 79% 0in /  0.0mm 508 W/m2
09:04 46.6 °F /  8.1 °C 40.1 °F /  4.5 °C 30in /  1016.9hPa ENE 2mph /  3.2km/h 3mph /  4.8km/h 78% 0in /  0.0mm 297 W/m2
09:09 46.8 °F /  8.2 °C 39.9 °F /  4.4 °C 30in /  1016.9hPa NE 0.9mph /  1.4km/h 6mph /  9.7km/h 77% 0in /  0.0mm 237 W/m2
09:14 46.8 °F /  8.2 °C 39.9 °F /  4.4 °C 30in /  1016.9hPa ENE 2.9mph /  4.7km/h 5mph /  8km/h 77% 0in /  0.0mm 211 W/m2
09:19 46.8 °F /  8.2 °C 39.6 °F /  4.2 °C 30in /  1016.9hPa NE 2.9mph /  4.7km/h 3mph /  4.8km/h 76% 0in /  0.0mm 237 W/m2
09:24 46.8 °F /  8.2 °C 39.6 °F /  4.2 °C 30in /  1016.9hPa NE 0.9mph /  1.4km/h 4mph /  6.4km/h 76% 0in /  0.0mm 200 W/m2
09:29 46.9 °F /  8.3 °C 39.7 °F /  4.3 °C 30in /  1016.9hPa ENE 2mph /  3.2km/h 3mph /  4.8km/h 76% 0in /  0.0mm 276 W/m2
09:34 47.1 °F /  8.4 °C 39.9 °F /  4.4 °C 30in /  1016.9hPa NE 0.9mph /  1.4km/h 4mph /  6.4km/h 76% 0in /  0.0mm 378 W/m2
09:39 47.7 °F /  8.7 °C 40.1 °F /  4.5 °C 30in /  1016.9hPa East 0.9mph /  1.4km/h 4mph /  6.4km/h 75% 0in /  0.0mm 306 W/m2
09:44 48 °F /  8.9 °C 40.5 °F /  4.7 °C 30in /  1016.6hPa ENE 2mph /  3.2km/h 5mph /  8km/h 75% 0in /  0.0mm 295 W/m2
09:49 48.4 °F /  9.1 °C 40.5 °F /  4.7 °C 30in /  1016.6hPa NE 4mph /  6.4km/h 6mph /  9.7km/h 74% 0in /  0.0mm 399 W/m2
09:54 48.7 °F /  9.3 °C 40.8 °F /  4.9 °C 30in /  1016.6hPa ENE 2mph /  3.2km/h 3mph /  4.8km/h 74% 0in /  0.0mm 332 W/m2
09:59 49.1 °F /  9.5 °C 40.1 °F /  4.5 °C 30in /  1016.6hPa SE 4mph /  6.4km/h 4mph /  6.4km/h 71% 0in /  0.0mm 260 W/m2
10:04 49.5 °F /  9.7 °C 40.5 °F /  4.7 °C 30in /  1016.6hPa ESE 0.9mph /  1.4km/h 7mph /  11.3km/h 71% 0in /  0.0mm 336 W/m2
10:09 50.2 °F /  10.1 °C 40.8 °F /  4.9 °C 30in /  1016.6hPa ENE 0.9mph /  1.4km/h 7mph /  11.3km/h 70% 0in /  0.0mm 332 W/m2
10:14 50.5 °F /  10.3 °C 40.8 °F /  4.9 °C 30in /  1016.3hPa East 4mph /  6.4km/h 7mph /  11.3km/h 69% 0in /  0.0mm 294 W/m2
10:19 50.9 °F /  10.5 °C 40.3 °F /  4.6 °C 30in /  1016.3hPa East 6mph /  9.7km/h 6mph /  9.7km/h 67% 0in /  0.0mm 410 W/m2
10:24 51.4 °F /  10.8 °C 41.2 °F /  5.1 °C 30in /  1016.3hPa NE 0.9mph /  1.4km/h 7mph /  11.3km/h 68% 0in /  0.0mm 401 W/m2
10:29 52 °F /  11.1 °C 41.4 °F /  5.2 °C 30in /  1016.3hPa Calm   5mph /  8km/h 67% 0in /  0.0mm 411 W/m2
10:34 52.5 °F /  11.4 °C 41.9 °F /  5.5 °C 30in /  1016.3hPa ENE 2mph /  3.2km/h 6mph /  9.7km/h 67% 0in /  0.0mm 566 W/m2
10:39 53.1 °F /  11.7 °C 42.1 °F /  5.6 °C 30in /  1016.3hPa East 2mph /  3.2km/h 4mph /  6.4km/h 66% 0in /  0.0mm 564 W/m2
10:44 53.8 °F /  12.1 °C 42.3 °F /  5.7 °C 30in /  1016.3hPa Calm   4mph /  6.4km/h 65% 0in /  0.0mm 494 W/m2
10:49 54.1 °F /  12.3 °C 41.4 °F /  5.2 °C 30in /  1016.3hPa ENE 2mph /  3.2km/h 4mph /  6.4km/h 62% 0in /  0.0mm 346 W/m2
10:54 54.3 °F /  12.4 °C 41.5 °F /  5.3 °C 30in /  1016.3hPa ENE 2.9mph /  4.7km/h 6mph /  9.7km/h 62% 0in /  0.0mm 306 W/m2
10:59 54.5 °F /  12.5 °C 41.7 °F /  5.4 °C 30in /  1015.9hPa East 2.9mph /  4.7km/h 3mph /  4.8km/h 62% 0in /  0.0mm 260 W/m2
11:04 54.9 °F /  12.7 °C 41.2 °F /  5.1 °C 30in /  1015.9hPa ENE 6mph /  9.7km/h 6mph /  9.7km/h 60% 0in /  0.0mm 350 W/m2
11:09 55 °F /  12.8 °C 41.4 °F /  5.2 °C 30in /  1015.9hPa ENE 4mph /  6.4km/h 7mph /  11.3km/h 60% 0in /  0.0mm 315 W/m2
11:14 55.2 °F /  12.9 °C 41.2 °F /  5.1 °C 30in /  1015.9hPa East 2mph /  3.2km/h 4mph /  6.4km/h 59% 0in /  0.0mm 301 W/m2
11:19 55.4 °F /  13 °C 41.4 °F /  5.2 °C 30in /  1015.6hPa East 2.9mph /  4.7km/h 4mph /  6.4km/h 59% 0in /  0.0mm 343 W/m2
11:24 55.6 °F /  13.1 °C 41.5 °F /  5.3 °C 30in /  1015.6hPa ENE 2.9mph /  4.7km/h 6mph /  9.7km/h 59% 0in /  0.0mm 336 W/m2
11:29 55.9 °F /  13.3 °C 41.9 °F /  5.5 °C 30in /  1015.6hPa Calm   8mph /  12.9km/h 59% 0in /  0.0mm 353 W/m2
11:34 56.1 °F /  13.4 °C 41.9 °F /  5.5 °C 30in /  1015.6hPa NNE 4.9mph /  7.9km/h 7mph /  11.3km/h 59% 0in /  0.0mm 411 W/m2
11:39 56.5 °F /  13.6 °C 42.8 °F /  6 °C 30in /  1015.2hPa East 2.9mph /  4.7km/h 4mph /  6.4km/h 60% 0in /  0.0mm 325 W/m2
11:44 56.7 °F /  13.7 °C 42.4 °F /  5.8 °C 30in /  1015.2hPa ENE 2.9mph /  4.7km/h 5mph /  8km/h 59% 0in /  0.0mm 355 W/m2
11:49 56.7 °F /  13.7 °C 42.4 °F /  5.8 °C 30in /  1015.2hPa ENE 4.9mph /  7.9km/h 8mph /  12.9km/h 59% 0in /  0.0mm 239 W/m2
11:54 56.7 °F /  13.7 °C 42.4 °F /  5.8 °C 30in /  1015.2hPa ENE 2.9mph /  4.7km/h 7mph /  11.3km/h 59% 0in /  0.0mm 248 W/m2
11:59 56.7 °F /  13.7 °C 43 °F /  6.1 °C 30in /  1015.2hPa East 2.9mph /  4.7km/h 7mph /  11.3km/h 60% 0in /  0.0mm 265 W/m2
12:04 56.7 °F /  13.7 °C 43 °F /  6.1 °C 30in /  1015.2hPa East 2.9mph /  4.7km/h 4mph /  6.4km/h 60% 0in /  0.0mm 278 W/m2
12:09 56.7 °F /  13.7 °C 43 °F /  6.1 °C 30in /  1015.2hPa NE 2.9mph /  4.7km/h 8mph /  12.9km/h 60% 0in /  0.0mm 281 W/m2
12:14 56.8 °F /  13.8 °C 43.5 °F /  6.4 °C 30in /  1015.2hPa NE 2mph /  3.2km/h 6mph /  9.7km/h 61% 0in /  0.0mm 246 W/m2
12:19 56.8 °F /  13.8 °C 43.5 °F /  6.4 °C 30in /  1015.2hPa ESE 8.1mph /  13km/h 8mph /  12.9km/h 61% 0in /  0.0mm 207 W/m2
12:24 56.7 °F /  13.7 °C 43.3 °F /  6.3 °C 30in /  1015.2hPa ESE 4mph /  6.4km/h 4mph /  6.4km/h 61% 0in /  0.0mm 220 W/m2
12:29 56.7 °F /  13.7 °C 43 °F /  6.1 °C 30in /  1015.2hPa East 4.9mph /  7.9km/h 6mph /  9.7km/h 60% 0in /  0.0mm 214 W/m2
12:34 56.8 °F /  13.8 °C 43.5 °F /  6.4 °C 30in /  1015.2hPa East 4.9mph /  7.9km/h 7mph /  11.3km/h 61% 0in /  0.0mm 220 W/m2
12:39 56.8 °F /  13.8 °C 43.5 °F /  6.4 °C 30in /  1014.9hPa East 2.9mph /  4.7km/h 5mph /  8km/h 61% 0in /  0.0mm 230 W/m2
12:44 57 °F /  13.9 °C 43.3 °F /  6.3 °C 30in /  1014.9hPa East 0.9mph /  1.4km/h 2mph /  3.2km/h 60% 0in /  0.0mm 294 W/m2
12:49 57.4 °F /  14.1 °C 43.7 °F /  6.5 °C 30in /  1014.9hPa ENE 2.9mph /  4.7km/h 6mph /  9.7km/h 60% 0in /  0.0mm 290 W/m2
12:54 57.7 °F /  14.3 °C 43.9 °F /  6.6 °C 30in /  1014.9hPa ENE 6mph /  9.7km/h 8mph /  12.9km/h 60% 0in /  0.0mm 281 W/m2
12:59 57.7 °F /  14.3 °C 43 °F /  6.1 °C 30in /  1014.6hPa SSE 0.9mph /  1.4km/h 4mph /  6.4km/h 58% 0in /  0.0mm 301 W/m2
13:04 57.9 °F /  14.4 °C 43.7 °F /  6.5 °C 30in /  1014.6hPa NNE 2mph /  3.2km/h 6mph /  9.7km/h 59% 0in /  0.0mm 274 W/m2
13:09 58.1 °F /  14.5 °C 43.9 °F /  6.6 °C 30in /  1014.6hPa SE 0.9mph /  1.4km/h 3mph /  4.8km/h 59% 0in /  0.0mm 250 W/m2
13:14 58.5 °F /  14.7 °C 44.2 °F /  6.8 °C 30in /  1014.6hPa ESE 2.9mph /  4.7km/h 8mph /  12.9km/h 59% 0in /  0.0mm 251 W/m2
13:19 58.5 °F /  14.7 °C 44.2 °F /  6.8 °C 30in /  1014.6hPa East 8.9mph /  14.3km/h 10mph /  16.1km/h 59% 0in /  0.0mm 345 W/m2
13:24 58.6 °F /  14.8 °C 44.4 °F /  6.9 °C 30in /  1014.6hPa SSE 2.9mph /  4.7km/h 6mph /  9.7km/h 59% 0in /  0.0mm 457 W/m2
13:29 59.2 °F /  15.1 °C 44.8 °F /  7.1 °C 30in /  1014.2hPa ENE 2mph /  3.2km/h 6mph /  9.7km/h 59% 0in /  0.0mm 357 W/m2
13:34 59.5 °F /  15.3 °C 45.1 °F /  7.3 °C 30in /  1014.2hPa ESE 2.9mph /  4.7km/h 7mph /  11.3km/h 59% 0in /  0.0mm 381 W/m2
13:39 59.7 °F /  15.4 °C 45.3 °F /  7.4 °C 30in /  1014.2hPa East 2mph /  3.2km/h 6mph /  9.7km/h 59% 0in /  0.0mm 457 W/m2
13:44 60.1 °F /  15.6 °C 45.3 °F /  7.4 °C 30in /  1014.2hPa ESE 2mph /  3.2km/h 7mph /  11.3km/h 58% 0in /  0.0mm 401 W/m2
13:49 60.3 °F /  15.7 °C 45.5 °F /  7.5 °C 30in /  1014.2hPa SSE 8.1mph /  13km/h 8mph /  12.9km/h 58% 0in /  0.0mm 306 W/m2
13:54 60.3 °F /  15.7 °C 45.5 °F /  7.5 °C 29.9in /  1013.9hPa NNE 4mph /  6.4km/h 8mph /  12.9km/h 58% 0in /  0.0mm 345 W/m2
13:59 60.4 °F /  15.8 °C 46 °F /  7.8 °C 29.9in /  1013.9hPa ENE 2mph /  3.2km/h 7mph /  11.3km/h 59% 0in /  0.0mm 401 W/m2
14:04 60.4 °F /  15.8 °C 45.7 °F /  7.6 °C 29.9in /  1013.9hPa ENE 2mph /  3.2km/h 6mph /  9.7km/h 58% 0in /  0.0mm 304 W/m2
14:09 60.4 °F /  15.8 °C 46 °F /  7.8 °C 29.9in /  1013.5hPa ESE 2mph /  3.2km/h 7mph /  11.3km/h 59% 0in /  0.0mm 399 W/m2
14:14 61 °F /  16.1 °C 46.6 °F /  8.1 °C 29.9in /  1013.5hPa ENE 2mph /  3.2km/h 5mph /  8km/h 59% 0in /  0.0mm 515 W/m2
14:19 61.3 °F /  16.3 °C 46 °F /  7.8 °C 29.9in /  1013.5hPa NE 0.9mph /  1.4km/h 3mph /  4.8km/h 57% 0in /  0.0mm 350 W/m2
14:24 61.5 °F /  16.4 °C 46.6 °F /  8.1 °C 29.9in /  1013.5hPa East 2mph /  3.2km/h 5mph /  8km/h 58% 0in /  0.0mm 445 W/m2
14:29 61.9 °F /  16.6 °C 46.9 °F /  8.3 °C 29.9in /  1013.5hPa Calm   7mph /  11.3km/h 58% 0in /  0.0mm 439 W/m2
14:34 62.2 °F /  16.8 °C 47.3 °F /  8.5 °C 29.9in /  1013.2hPa ESE 2mph /  3.2km/h 3mph /  4.8km/h 58% 0in /  0.0mm 396 W/m2
14:39 62.4 °F /  16.9 °C 47.8 °F /  8.8 °C 29.9in /  1013.2hPa NNW 2mph /  3.2km/h 7mph /  11.3km/h 59% 0in /  0.0mm 250 W/m2
14:44 62.6 °F /  17 °C 47.7 °F /  8.7 °C 29.9in /  1013.2hPa NNW 0.9mph /  1.4km/h 3mph /  4.8km/h 58% 0in /  0.0mm 339 W/m2
14:49 62.8 °F /  17.1 °C 47.8 °F /  8.8 °C 29.9in /  1013.2hPa East 2.9mph /  4.7km/h 7mph /  11.3km/h 58% 0in /  0.0mm 378 W/m2
14:54 63.1 °F /  17.3 °C 48.6 °F /  9.2 °C 29.9in /  1012.9hPa East 0.9mph /  1.4km/h 6mph /  9.7km/h 59% 0in /  0.0mm 461 W/m2
15:00 63.3 °F /  17.4 °C 48.4 °F /  9.1 °C 29.9in /  1012.9hPa NNW 0.9mph /  1.4km/h 2mph /  3.2km/h 58% 0in /  0.0mm 450 W/m2
15:05 63.7 °F /  17.6 °C 47.7 °F /  8.7 °C 29.9in /  1012.9hPa NE 2mph /  3.2km/h 4mph /  6.4km/h 56% 0in /  0.0mm 454 W/m2
15:10 63.9 °F /  17.7 °C 48.7 °F /  9.3 °C 29.9in /  1012.9hPa SE 2.9mph /  4.7km/h 8mph /  12.9km/h 58% 0in /  0.0mm 580 W/m2
15:15 64 °F /  17.8 °C 48.6 °F /  9.2 °C 29.9in /  1012.5hPa ENE 4mph /  6.4km/h 12mph /  19.3km/h 57% 0in /  0.0mm 332 W/m2
15:20 64 °F /  17.8 °C 48.9 °F /  9.4 °C 29.9in /  1012.5hPa East 2mph /  3.2km/h 4mph /  6.4km/h 58% 0in /  0.0mm 357 W/m2
15:25 63.9 °F /  17.7 °C 48.7 °F /  9.3 °C 29.9in /  1012.5hPa Calm   8mph /  12.9km/h 58% 0in /  0.0mm 452 W/m2
15:30 63.9 °F /  17.7 °C 49.3 °F /  9.6 °C 29.9in /  1012.5hPa Calm   7mph /  11.3km/h 59% 0in /  0.0mm 322 W/m2
15:35 64 °F /  17.8 °C 48.9 °F /  9.4 °C 29.9in /  1012.5hPa ENE 2mph /  3.2km/h 7mph /  11.3km/h 58% 0in /  0.0mm 309 W/m2
15:40 64.2 °F /  17.9 °C 49.1 °F /  9.5 °C 29.9in /  1012.2hPa Calm   4mph /  6.4km/h 58% 0in /  0.0mm 295 W/m2
15:45 64.2 °F /  17.9 °C 49.1 °F /  9.5 °C 29.9in /  1012.2hPa ESE 4mph /  6.4km/h 7mph /  11.3km/h 58% 0in /  0.0mm 390 W/m2
15:50 64.6 °F /  18.1 °C 49.5 °F /  9.7 °C 29.9in /  1012.2hPa NE 2mph /  3.2km/h 3mph /  4.8km/h 58% 0in /  0.0mm 448 W/m2
15:55 65.1 °F /  18.4 °C 50 °F /  10 °C 29.9in /  1011.9hPa NNE 2.9mph /  4.7km/h 5mph /  8km/h 58% 0in /  0.0mm 448 W/m2
16:00 65.3 °F /  18.5 °C 50.2 °F /  10.1 °C 29.9in /  1011.9hPa NW 2.9mph /  4.7km/h 10mph /  16.1km/h 58% 0in /  0.0mm 482 W/m2
16:05 65.3 °F /  18.5 °C 50.5 °F /  10.3 °C 29.9in /  1011.9hPa NW 0.9mph /  1.4km/h 5mph /  8km/h 59% 0in /  0.0mm 494 W/m2
16:10 65.8 °F /  18.8 °C 50.7 °F /  10.4 °C 29.9in /  1011.9hPa NE 2.9mph /  4.7km/h 11mph /  17.7km/h 58% 0in /  0.0mm 461 W/m2
16:15 66.4 °F /  19.1 °C 51.1 °F /  10.6 °C 29.9in /  1011.9hPa North 2mph /  3.2km/h 5mph /  8km/h 58% 0in /  0.0mm 541 W/m2
16:20 66 °F /  18.9 °C 50.4 °F /  10.2 °C 29.9in /  1011.9hPa West 14.1mph /  22.7km/h 14mph /  22.5km/h 57% 0in /  0.0mm 336 W/m2
16:25 66 °F /  18.9 °C 51.3 °F /  10.7 °C 29.9in /  1011.9hPa East 6mph /  9.7km/h 6mph /  9.7km/h 59% 0in /  0.0mm 304 W/m2
16:30 65.8 °F /  18.8 °C 50.2 °F /  10.1 °C 29.9in /  1011.5hPa NW 16mph /  25.7km/h 16mph /  25.7km/h 57% 0in /  0.0mm 345 W/m2
16:35 65.8 °F /  18.8 °C 50.2 °F /  10.1 °C 29.9in /  1011.5hPa Calm   14mph /  22.5km/h 57% 0in /  0.0mm 373 W/m2
16:40 66.2 °F /  19 °C 50.9 °F /  10.5 °C 29.9in /  1011.5hPa WNW 4mph /  6.4km/h 8mph /  12.9km/h 58% 0in /  0.0mm 334 W/m2
16:45 66.4 °F /  19.1 °C 50.7 °F /  10.4 °C 29.9in /  1011.5hPa WNW 4mph /  6.4km/h 14mph /  22.5km/h 57% 0in /  0.0mm 315 W/m2
16:50 66.4 °F /  19.1 °C 50.7 °F /  10.4 °C 29.9in /  1011.5hPa SSW 2mph /  3.2km/h 5mph /  8km/h 57% 0in /  0.0mm 338 W/m2
16:55 66.4 °F /  19.1 °C 51.1 °F /  10.6 °C 29.9in /  1011.2hPa NNE 0.9mph /  1.4km/h 6mph /  9.7km/h 58% 0in /  0.0mm 301 W/m2
17:00 66.6 °F /  19.2 °C 50.9 °F /  10.5 °C 29.9in /  1011.2hPa NW 4mph /  6.4km/h 8mph /  12.9km/h 57% 0in /  0.0mm 269 W/m2
17:05 66.6 °F /  19.2 °C 50.9 °F /  10.5 °C 29.9in /  1011.2hPa ESE 2mph /  3.2km/h 7mph /  11.3km/h 57% 0in /  0.0mm 236 W/m2
17:10 66.4 °F /  19.1 °C 50.7 °F /  10.4 °C 29.9in /  1011.2hPa WNW 2.9mph /  4.7km/h 7mph /  11.3km/h 57% 0in /  0.0mm 221 W/m2
17:15 66.4 °F /  19.1 °C 50.7 °F /  10.4 °C 29.9in /  1011.2hPa ESE 2.9mph /  4.7km/h 4mph /  6.4km/h 57% 0in /  0.0mm 241 W/m2
17:20 66.4 °F /  19.1 °C 51.1 °F /  10.6 °C 29.9in /  1011.2hPa NW 4mph /  6.4km/h 4mph /  6.4km/h 58% 0in /  0.0mm 172 W/m2
17:25 66.4 °F /  19.1 °C 51.1 °F /  10.6 °C 29.9in /  1010.8hPa NNE 4.9mph /  7.9km/h 6mph /  9.7km/h 58% 0in /  0.0mm 255 W/m2
17:30 66.4 °F /  19.1 °C 51.1 °F /  10.6 °C 29.9in /  1010.8hPa WNW 4.9mph /  7.9km/h 8mph /  12.9km/h 58% 0in /  0.0mm 301 W/m2
17:35 66.6 °F /  19.2 °C 51.8 °F /  11 °C 29.9in /  1010.8hPa NNE 2mph /  3.2km/h 2mph /  3.2km/h 59% 0in /  0.0mm 278 W/m2
17:40 66.7 °F /  19.3 °C 51.4 °F /  10.8 °C 29.9in /  1010.8hPa East 0.9mph /  1.4km/h 4mph /  6.4km/h 58% 0in /  0.0mm 253 W/m2
17:45 66.9 °F /  19.4 °C 51.3 °F /  10.7 °C 29.9in /  1010.8hPa SW 2mph /  3.2km/h 3mph /  4.8km/h 57% 0in /  0.0mm 183 W/m2
17:50 66.7 °F /  19.3 °C 51.4 °F /  10.8 °C 29.9in /  1010.8hPa NW 2.9mph /  4.7km/h 6mph /  9.7km/h 58% 0in /  0.0mm 148 W/m2
17:55 66.6 °F /  19.2 °C 51.8 °F /  11 °C 29.9in /  1010.8hPa NW 0.9mph /  1.4km/h 1mph /  1.6km/h 59% 0in /  0.0mm 135 W/m2
18:00 66.6 °F /  19.2 °C 51.8 °F /  11 °C 29.9in /  1010.8hPa North 0.9mph /  1.4km/h 2mph /  3.2km/h 59% 0in /  0.0mm 120 W/m2
18:05 66.6 °F /  19.2 °C 51.8 °F /  11 °C 29.9in /  1010.8hPa ENE 2mph /  3.2km/h 3mph /  4.8km/h 59% 0in /  0.0mm 102 W/m2
18:10 66.4 °F /  19.1 °C 51.6 °F /  10.9 °C 29.9in /  1010.8hPa Calm   1mph /  1.6km/h 59% 0in /  0.0mm 86 W/m2
18:15 66.4 °F /  19.1 °C 51.6 °F /  10.9 °C 29.9in /  1010.8hPa NE 2.9mph /  4.7km/h 3mph /  4.8km/h 59% 0in /  0.0mm 95 W/m2
18:20 66.4 °F /  19.1 °C 52.2 °F /  11.2 °C 29.9in /  1010.8hPa ENE 2mph /  3.2km/h 3mph /  4.8km/h 60% 0in /  0.0mm 100 W/m2
18:25 66.2 °F /  19 °C 52 °F /  11.1 °C 29.8in /  1010.5hPa Calm   2mph /  3.2km/h 60% 0in /  0.0mm 155 W/m2
18:30 66.4 °F /  19.1 °C 52.2 °F /  11.2 °C 29.8in /  1010.5hPa ENE 4mph /  6.4km/h 7mph /  11.3km/h 60% 0in /  0.0mm 178 W/m2
18:35 66.6 °F /  19.2 °C 51.8 °F /  11 °C 29.8in /  1010.5hPa North 0.9mph /  1.4km/h 2mph /  3.2km/h 59% 0in /  0.0mm 169 W/m2
18:40 66.7 °F /  19.3 °C 52.3 °F /  11.3 °C 29.8in /  1010.2hPa North 2mph /  3.2km/h 7mph /  11.3km/h 60% 0in /  0.0mm 113 W/m2
18:45 67.1 °F /  19.5 °C 52.3 °F /  11.3 °C 29.8in /  1010.2hPa NE 0.9mph /  1.4km/h 2mph /  3.2km/h 59% 0in /  0.0mm 362 W/m2
18:50 67.5 °F /  19.7 °C 52.7 °F /  11.5 °C 29.8in /  1010.2hPa NE 0.9mph /  1.4km/h 2mph /  3.2km/h 59% 0in /  0.0mm 114 W/m2
18:55 67.5 °F /  19.7 °C 52.7 °F /  11.5 °C 29.8in /  1010.2hPa West 2.9mph /  4.7km/h 5mph /  8km/h 59% 0in /  0.0mm 104 W/m2
19:00 67.8 °F /  19.9 °C 52.9 °F /  11.6 °C 29.8in /  1010.2hPa West 4mph /  6.4km/h 4mph /  6.4km/h 59% 0in /  0.0mm 285 W/m2
19:05 68.2 °F /  20.1 °C 52.3 °F /  11.3 °C 29.8in /  1010.2hPa NNW 2mph /  3.2km/h 5mph /  8km/h 57% 0in /  0.0mm 86 W/m2
19:10 68.2 °F /  20.1 °C 52.9 °F /  11.6 °C 29.8in /  1010.2hPa NNW 0.9mph /  1.4km/h 3mph /  4.8km/h 58% 0in /  0.0mm 113 W/m2
19:15 68 °F /  20 °C 52.2 °F /  11.2 °C 29.8in /  1010.2hPa Calm   3mph /  4.8km/h 57% 0in /  0.0mm 105 W/m2
19:20 67.6 °F /  19.8 °C 52.3 °F /  11.3 °C 29.8in /  1010.2hPa NNE 0.9mph /  1.4km/h 3mph /  4.8km/h 58% 0in /  0.0mm 79 W/m2
19:25 67.5 °F /  19.7 °C 52.2 °F /  11.2 °C 29.8in /  1010.2hPa North 2mph /  3.2km/h 5mph /  8km/h 58% 0in /  0.0mm 111 W/m2
19:30 67.3 °F /  19.6 °C 52.5 °F /  11.4 °C 29.8in /  1010.2hPa West 0.9mph /  1.4km/h 2mph /  3.2km/h 59% 0in /  0.0mm 70 W/m2
19:35 67.3 °F /  19.6 °C 52.5 °F /  11.4 °C 29.8in /  1009.8hPa Calm   3mph /  4.8km/h 59% 0in /  0.0mm 105 W/m2
19:40 67.3 °F /  19.6 °C 52.9 °F /  11.6 °C 29.8in /  1009.8hPa Calm   2mph /  3.2km/h 60% 0in /  0.0mm 181 W/m2
19:45 67.6 °F /  19.8 °C 53.8 °F /  12.1 °C 29.8in /  1009.8hPa West 0.9mph /  1.4km/h 1mph /  1.6km/h 61% 0in /  0.0mm 193 W/m2
19:50 67.8 °F /  19.9 °C 52.9 °F /  11.6 °C 29.8in /  1009.8hPa WNW 0.9mph /  1.4km/h 1mph /  1.6km/h 59% 0in /  0.0mm 158 W/m2
19:55 68 °F /  20 °C 52.7 °F /  11.5 °C 29.8in /  1009.8hPa East 0.9mph /  1.4km/h 2mph /  3.2km/h 58% 0in /  0.0mm 148 W/m2
20:00 68 °F /  20 °C 53.6 °F /  12 °C 29.8in /  1009.8hPa Calm   1mph /  1.6km/h 60% 0in /  0.0mm 84 W/m2
20:05 67.8 °F /  19.9 °C 54 °F /  12.2 °C 29.8in /  1009.8hPa Calm     61% 0in /  0.0mm 62 W/m2
20:10 67.6 °F /  19.8 °C 54.7 °F /  12.6 °C 29.8in /  1009.8hPa Calm     63% 0in /  0.0mm 51 W/m2
20:15 67.3 °F /  19.6 °C 55 °F /  12.8 °C 29.8in /  1009.8hPa Calm     65% 0in /  0.0mm 33 W/m2
20:20 66.9 °F /  19.4 °C 55.2 °F /  12.9 °C 29.8in /  1009.8hPa Calm     66% 0in /  0.0mm 32 W/m2
20:25 66.6 °F /  19.2 °C 55.2 °F /  12.9 °C 29.8in /  1009.8hPa Calm     67% 0in /  0.0mm 26 W/m2
20:30 66.2 °F /  19 °C 54.9 °F /  12.7 °C 29.8in /  1009.8hPa Calm     67% 0in /  0.0mm 19 W/m2
20:35 65.8 °F /  18.8 °C 55 °F /  12.8 °C 29.8in /  1009.8hPa Calm     68% 0in /  0.0mm 12 W/m2
20:40 65.3 °F /  18.5 °C 54.5 °F /  12.5 °C 29.8in /  1009.8hPa Calm     68% 0in /  0.0mm 11 W/m2
20:45 64.8 °F /  18.2 °C 54.3 °F /  12.4 °C 29.8in /  1009.8hPa Calm     69% 0in /  0.0mm 11 W/m2
20:50 64.2 °F /  17.9 °C 54.3 °F /  12.4 °C 29.8in /  1009.8hPa Calm     70% 0in /  0.0mm 9 W/m2
20:55 63.7 °F /  17.6 °C 53.8 °F /  12.1 °C 29.8in /  1009.8hPa Calm     70% 0in /  0.0mm 5 W/m2
21:00 63.1 °F /  17.3 °C 53.6 °F /  12 °C 29.8in /  1009.8hPa Calm     71% 0in /  0.0mm 0 W/m2
21:05 62.4 °F /  16.9 °C 53.2 °F /  11.8 °C 29.8in /  1009.8hPa Calm     72% 0in /  0.0mm 0 W/m2
21:10 62.1 °F /  16.7 °C 52.9 °F /  11.6 °C 29.8in /  1009.8hPa Calm     72% 0in /  0.0mm 0 W/m2
21:15 61.5 °F /  16.4 °C 52.7 °F /  11.5 °C 29.8in /  1009.8hPa Calm     73% 0in /  0.0mm 0 W/m2
21:21 60.8 °F /  16 °C 52.5 °F /  11.4 °C 29.8in /  1009.8hPa Calm   2mph /  3.2km/h 74% 0in /  0.0mm 0 W/m2
21:26 60.3 °F /  15.7 °C 52.7 °F /  11.5 °C 29.8in /  1009.8hPa Calm   2mph /  3.2km/h 76% 0in /  0.0mm 0 W/m2
21:31 59.7 °F /  15.4 °C 52.2 °F /  11.2 °C 29.8in /  1009.8hPa Calm     76% 0in /  0.0mm 0 W/m2
21:36 59.2 °F /  15.1 °C 52.3 °F /  11.3 °C 29.8in /  1009.8hPa Calm   1mph /  1.6km/h 78% 0in /  0.0mm 0 W/m2
21:41 58.6 °F /  14.8 °C 51.8 °F /  11 °C 29.8in /  1009.8hPa Calm     78% 0in /  0.0mm 0 W/m2
21:46 58.3 °F /  14.6 °C 51.8 °F /  11 °C 29.8in /  1009.8hPa Calm     79% 0in /  0.0mm 0 W/m2
21:51 57.7 °F /  14.3 °C 51.6 °F /  10.9 °C 29.8in /  1009.8hPa Calm     80% 0in /  0.0mm 0 W/m2
21:56 57.6 °F /  14.2 °C 51.8 °F /  11 °C 29.8in /  1009.8hPa Calm     81% 0in /  0.0mm 0 W/m2
22:01 57 °F /  13.9 °C 51.3 °F /  10.7 °C 29.8in /  1009.8hPa Calm     81% 0in /  0.0mm 0 W/m2
22:06 56.7 °F /  13.7 °C 51.3 °F /  10.7 °C 29.8in /  1009.8hPa Calm     82% 0in /  0.0mm 0 W/m2
22:11 56.5 °F /  13.6 °C 51.4 °F /  10.8 °C 29.8in /  1009.8hPa Calm     83% 0in /  0.0mm 0 W/m2
22:16 56.1 °F /  13.4 °C 51.1 °F /  10.6 °C 29.8in /  1009.8hPa Calm     83% 0in /  0.0mm 0 W/m2
22:21 55.9 °F /  13.3 °C 51.3 °F /  10.7 °C 29.8in /  1009.8hPa Calm     84% 0in /  0.0mm 0 W/m2
22:26 55.8 °F /  13.2 °C 51.1 °F /  10.6 °C 29.8in /  1009.8hPa Calm     84% 0in /  0.0mm 0 W/m2
22:31 55.6 °F /  13.1 °C 51.1 °F /  10.6 °C 29.8in /  1009.8hPa Calm     85% 0in /  0.0mm 0 W/m2
22:36 55.2 °F /  12.9 °C 50.7 °F /  10.4 °C 29.8in /  1009.8hPa Calm     85% 0in /  0.0mm 0 W/m2
22:41 55.2 °F /  12.9 °C 51.1 °F /  10.6 °C 29.8in /  1009.8hPa Calm   1mph /  1.6km/h 86% 0in /  0.0mm 0 W/m2
22:46 55 °F /  12.8 °C 50.9 °F /  10.5 °C 29.8in /  1009.8hPa Calm   1mph /  1.6km/h 86% 0in /  0.0mm 0 W/m2
22:51 54.9 °F /  12.7 °C 50.7 °F /  10.4 °C 29.8in /  1009.8hPa Calm     86% 0in /  0.0mm 0 W/m2
22:56 54.7 °F /  12.6 °C 50.5 °F /  10.3 °C 29.8in /  1009.8hPa Calm     86% 0in /  0.0mm 0 W/m2
23:01 54.7 °F /  12.6 °C 50.5 °F /  10.3 °C 29.8in /  1009.8hPa Calm   1mph /  1.6km/h 86% 0in /  0.0mm 0 W/m2
23:06 54.3 °F /  12.4 °C 50.5 °F /  10.3 °C 29.8in /  1009.8hPa Calm   1mph /  1.6km/h 87% 0in /  0.0mm 0 W/m2
23:11 54.1 °F /  12.3 °C 50.4 °F /  10.2 °C 29.8in /  1009.8hPa East 0.9mph /  1.4km/h 1mph /  1.6km/h 87% 0in /  0.0mm 0 W/m2
23:16 53.8 °F /  12.1 °C 50 °F /  10 °C 29.8in /  1009.8hPa Calm   1mph /  1.6km/h 87% 0in /  0.0mm 0 W/m2
23:21 53.6 °F /  12 °C 50.2 °F /  10.1 °C 29.8in /  1009.8hPa Calm     88% 0in /  0.0mm 0 W/m2
23:26 53.2 °F /  11.8 °C 49.8 °F /  9.9 °C 29.8in /  1009.8hPa Calm     88% 0in /  0.0mm 0 W/m2
23:31 53.2 °F /  11.8 °C 50 °F /  10 °C 29.8in /  1009.8hPa Calm   1mph /  1.6km/h 89% 0in /  0.0mm 0 W/m2
23:36 53.1 °F /  11.7 °C 49.8 °F /  9.9 °C 29.8in /  1009.8hPa Calm     89% 0in /  0.0mm 0 W/m2
23:41 52.9 °F /  11.6 °C 49.6 °F /  9.8 °C 29.8in /  1009.8hPa Calm     89% 0in /  0.0mm 0 W/m2
23:46 52.5 °F /  11.4 °C 49.5 °F /  9.7 °C 29.8in /  1009.8hPa Calm     89% 0in /  0.0mm 0 W/m2
23:51 52.3 °F /  11.3 °C 49.3 °F /  9.6 °C 29.8in /  1009.5hPa Calm   1mph /  1.6km/h 89% 0in /  0.0mm 0 W/m2
23:56 52.3 °F /  11.3 °C 49.5 °F /  9.7 °C 29.8in /  1009.5hPa Calm     90% 0in /  0.0mm 0 W/m2
Juneau County Weather
Compliments of Weather Underground - 4 mb